createdAt,value
2022-09-04T00:02:29.737Z,5.88
2022-09-04T00:05:20.857Z,5.45
2022-09-04T00:07:58.410Z,5.40
2022-09-04T00:11:00.670Z,6.43
2022-09-04T00:13:38.222Z,5.18
2022-09-04T00:16:20.091Z,5.55
2022-09-04T00:18:59.701Z,5.57
2022-09-04T00:22:00.476Z,5.30
2022-09-04T00:24:38.433Z,5.35
2022-09-04T00:27:13.856Z,5.25
2022-09-04T00:30:02.501Z,5.40
2022-09-04T00:33:00.419Z,5.60
2022-09-04T00:35:33.880Z,5.13
2022-09-04T00:38:08.560Z,5.38
2022-09-04T00:40:39.753Z,5.22
2022-09-04T00:43:40.628Z,5.35
2022-09-04T00:46:38.197Z,4.68
2022-09-04T00:49:43.101Z,4.93
2022-09-04T00:52:36.277Z,5.07
2022-09-04T00:55:45.585Z,5.28
2022-09-04T00:58:34.533Z,4.95
2022-09-04T01:01:02.644Z,4.65
2022-09-04T01:03:48.469Z,4.63
2022-09-04T01:06:42.446Z,5.30
2022-09-04T01:09:12.337Z,4.90
2022-09-04T01:11:39.185Z,4.70
2022-09-04T01:14:29.776Z,5.03
2022-09-04T01:17:41.743Z,4.90
2022-09-04T01:20:20.372Z,3.75
2022-09-04T01:23:19.353Z,5.15
2022-09-04T01:26:09.120Z,4.25
2022-09-04T01:28:36.064Z,4.45
2022-09-04T01:31:21.628Z,4.15
2022-09-04T01:34:16.138Z,4.15
2022-09-04T01:36:57.731Z,5.30
2022-09-04T01:39:28.186Z,4.82
2022-09-04T01:42:34.745Z,4.63
2022-09-04T01:45:02.895Z,4.50
2022-09-04T01:47:43.373Z,3.97
2022-09-04T01:50:18.332Z,4.55
2022-09-04T01:53:02.313Z,4.15
2022-09-04T01:55:50.990Z,4.70
2022-09-04T01:58:43.483Z,4.32
2022-09-04T02:01:38.523Z,4.18
2022-09-04T02:04:21.236Z,3.95
2022-09-04T02:07:27.814Z,4.20
2022-09-04T02:10:00.901Z,4.80
2022-09-04T02:12:35.964Z,4.00
2022-09-04T02:15:10.028Z,4.60
2022-09-04T02:17:46.823Z,4.28
2022-09-04T02:20:31.281Z,4.32
2022-09-04T02:23:30.230Z,4.38
2022-09-04T02:26:45.372Z,4.68
2022-09-04T02:29:25.982Z,4.40
2022-09-04T02:32:13.377Z,4.78
2022-09-04T02:34:48.069Z,5.03
2022-09-04T02:37:25.024Z,4.60
2022-09-04T02:40:37.849Z,4.75
2022-09-04T02:43:57.816Z,5.20
2022-09-04T02:46:57.269Z,5.10
2022-09-04T02:49:54.370Z,5.15
2022-09-04T02:52:59.820Z,5.50
2022-09-04T02:55:57.991Z,5.45
2022-09-04T02:58:50.379Z,5.32
2022-09-04T03:01:59.663Z,5.60
2022-09-04T03:05:12.518Z,5.78
2022-09-04T03:08:19.212Z,5.82
2022-09-04T03:11:20.363Z,5.93
2022-09-04T03:14:05.565Z,6.15
2022-09-04T03:16:54.452Z,5.60
2022-09-04T03:19:31.031Z,5.43
2022-09-04T03:22:16.359Z,6.25
2022-09-04T03:25:25.291Z,6.00
2022-09-04T03:27:52.700Z,5.68
2022-09-04T03:30:20.131Z,6.32
2022-09-04T03:32:53.002Z,5.90
2022-09-04T03:35:39.805Z,6.32
2022-09-04T03:38:18.361Z,6.78
2022-09-04T03:41:11.245Z,6.22
2022-09-04T03:43:40.887Z,6.90
2022-09-04T03:46:24.024Z,6.50
2022-09-04T03:49:06.594Z,7.07
2022-09-04T03:51:42.624Z,6.30
2022-09-04T03:54:12.863Z,7.25
2022-09-04T03:57:20.041Z,7.40
2022-09-04T04:00:18.406Z,7.30
2022-09-04T04:03:28.457Z,7.60
2022-09-04T04:06:14.916Z,7.07
2022-09-04T04:09:19.639Z,7.18
2022-09-04T04:11:53.284Z,7.30
2022-09-04T04:14:42.413Z,7.05
2022-09-04T04:17:20.534Z,7.70
2022-09-04T04:20:26.929Z,8.38
2022-09-04T04:23:21.052Z,7.55
2022-09-04T04:26:05.678Z,7.88
2022-09-04T04:29:03.137Z,7.93
2022-09-04T04:32:10.667Z,9.25
2022-09-04T04:35:16.541Z,8.70
2022-09-04T04:38:22.541Z,8.65
2022-09-04T04:41:09.888Z,12.70
2022-09-04T04:43:55.380Z,21.23
2022-09-04T04:47:15.655Z,16.65
2022-09-04T04:50:06.469Z,14.95
2022-09-04T04:52:46.152Z,36.17
2022-09-04T04:55:50.563Z,37.55
2022-09-04T04:58:40.434Z,17.70
2022-09-04T05:01:16.513Z,13.85
2022-09-04T05:03:48.937Z,10.27
2022-09-04T05:06:36.338Z,9.15
2022-09-04T05:09:23.067Z,8.82
2022-09-04T05:12:27.647Z,7.78
2022-09-04T05:15:28.624Z,7.32
2022-09-04T05:18:06.867Z,7.82
2022-09-04T05:20:38.102Z,7.45
2022-09-04T05:23:42.560Z,6.97
2022-09-04T05:26:46.315Z,6.93
2022-09-04T05:29:32.430Z,7.35
2022-09-04T05:32:08.445Z,6.88
2022-09-04T05:35:12.992Z,6.93
2022-09-04T05:38:13.981Z,6.93
2022-09-04T05:40:58.260Z,6.78
2022-09-04T05:43:31.379Z,6.30
2022-09-04T05:46:01.063Z,5.35
2022-09-04T05:49:01.915Z,6.18
2022-09-04T05:51:54.741Z,5.97
2022-09-04T05:54:49.569Z,6.40
2022-09-04T05:57:27.407Z,5.95
2022-09-04T06:00:08.061Z,6.30
2022-09-04T06:02:53.237Z,7.32
2022-09-04T06:05:29.093Z,6.15
2022-09-04T06:08:21.564Z,6.95
2022-09-04T06:11:03.082Z,7.82
2022-09-04T06:13:54.411Z,7.32
2022-09-04T06:16:42.613Z,7.03
2022-09-04T06:19:35.621Z,7.40
2022-09-04T06:22:41.688Z,7.93
2022-09-04T06:25:37.851Z,8.10
2022-09-04T06:28:16.622Z,7.60
2022-09-04T06:30:53.691Z,8.05
2022-09-04T06:33:40.491Z,7.82
2022-09-04T06:36:29.733Z,9.20
2022-09-04T06:39:18.195Z,9.10
2022-09-04T06:42:06.113Z,8.25
2022-09-04T06:45:06.856Z,8.48
2022-09-04T06:47:53.482Z,8.15
2022-09-04T06:50:39.284Z,8.23
2022-09-04T06:53:42.637Z,8.45
2022-09-04T06:56:41.278Z,8.20
2022-09-04T06:59:42.432Z,7.18
2022-09-04T07:02:31.247Z,7.57
2022-09-04T07:05:47.756Z,9.02
2022-09-04T07:08:23.956Z,7.90
2022-09-04T07:11:08.518Z,7.18
2022-09-04T07:13:49.286Z,7.10
2022-09-04T07:16:41.012Z,7.18
2022-09-04T07:19:16.663Z,7.32
2022-09-04T07:22:06.583Z,7.50
2022-09-04T07:24:48.495Z,7.40
2022-09-04T07:27:28.154Z,7.90
2022-09-04T07:29:59.926Z,6.47
2022-09-04T07:32:35.143Z,6.53
2022-09-04T07:35:37.282Z,7.10
2022-09-04T07:38:38.986Z,5.45
2022-09-04T07:41:16.880Z,6.60
2022-09-04T07:44:05.130Z,5.70
2022-09-04T07:46:40.467Z,4.78
2022-09-04T07:49:37.753Z,4.78
2022-09-04T07:52:23.403Z,5.05
2022-09-04T07:55:17.838Z,5.55
2022-09-04T07:57:58.128Z,5.10
2022-09-04T08:00:26.755Z,4.35
2022-09-04T08:03:20.589Z,4.32
2022-09-04T08:06:10.350Z,4.47
2022-09-04T08:08:43.406Z,4.22
2022-09-04T08:11:17.233Z,4.20
2022-09-04T08:14:11.411Z,4.38
2022-09-04T08:16:57.157Z,3.67
2022-09-04T08:19:29.799Z,4.03
2022-09-04T08:22:03.363Z,3.70
2022-09-04T08:24:50.239Z,3.88
2022-09-04T08:27:55.618Z,4.07
2022-09-04T08:30:23.931Z,3.33
2022-09-04T08:33:17.047Z,3.25
2022-09-04T08:35:58.050Z,3.15
2022-09-04T08:38:49.090Z,3.00
2022-09-04T08:41:50.304Z,2.97
2022-09-04T08:44:32.789Z,3.20
2022-09-04T08:47:33.756Z,2.78
2022-09-04T08:50:26.460Z,2.88
2022-09-04T08:53:12.173Z,2.88
2022-09-04T08:56:06.487Z,2.92
2022-09-04T08:59:10.081Z,2.72
2022-09-04T09:02:18.753Z,2.42
2022-09-04T09:04:55.232Z,2.72
2022-09-04T09:07:28.578Z,2.58
2022-09-04T09:10:13.092Z,4.13
2022-09-04T09:12:58.468Z,2.10
2022-09-04T09:15:54.048Z,2.30
2022-09-04T09:18:46.142Z,2.55
2022-09-04T09:21:38.212Z,2.20
2022-09-04T09:24:27.186Z,2.30
2022-09-04T09:27:31.293Z,2.28
2022-09-04T09:30:09.821Z,2.50
2022-09-04T09:33:05.673Z,2.25
2022-09-04T09:36:10.598Z,2.03
2022-09-04T09:39:06.212Z,2.42
2022-09-04T09:41:59.765Z,2.25
2022-09-04T09:45:01.621Z,2.45
2022-09-04T09:50:21.275Z,2.05
2022-09-04T09:53:13.544Z,2.13
2022-09-04T09:55:59.515Z,2.05
2022-09-04T09:58:45.513Z,1.90
2022-09-04T10:01:31.648Z,2.33
2022-09-04T10:04:30.721Z,2.00
2022-09-04T10:07:42.798Z,2.17
2022-09-04T10:10:22.421Z,1.92
2022-09-04T10:12:55.423Z,2.00
2022-09-04T10:16:01.593Z,2.33
2022-09-04T10:18:50.648Z,1.63
2022-09-04T10:21:50.837Z,1.85
2022-09-04T10:24:57.784Z,2.10
2022-09-04T10:27:35.002Z,1.77
2022-09-04T10:30:06.589Z,1.70
2022-09-04T10:32:51.972Z,1.75
2022-09-04T10:35:26.383Z,1.80
2022-09-04T10:38:05.401Z,2.17
2022-09-04T10:40:57.474Z,2.00
2022-09-04T10:43:43.370Z,1.75
2022-09-04T10:46:23.022Z,2.22
2022-09-04T10:49:21.818Z,1.70
2022-09-04T10:52:00.353Z,2.00
2022-09-04T10:55:04.747Z,2.20
2022-09-04T10:57:50.571Z,1.90
2022-09-04T11:00:22.980Z,2.15
2022-09-04T11:03:03.439Z,1.65
2022-09-04T11:05:52.155Z,1.40
2022-09-04T11:08:47.565Z,1.90
2022-09-04T11:11:33.513Z,1.90
2022-09-04T11:14:06.440Z,1.70
2022-09-04T11:17:13.330Z,1.70
2022-09-04T11:20:18.393Z,1.55
2022-09-04T11:23:12.477Z,1.63
2022-09-04T11:26:08.530Z,2.08
2022-09-04T11:28:44.234Z,1.67
2022-09-04T11:31:25.941Z,2.28
2022-09-04T11:33:58.887Z,2.67
2022-09-04T11:36:41.253Z,1.85
2022-09-04T11:39:26.273Z,2.65
2022-09-04T11:42:11.932Z,1.65
2022-09-04T11:44:50.688Z,1.98
2022-09-04T11:47:42.371Z,1.70
2022-09-04T11:50:35.206Z,1.48
2022-09-04T11:53:11.661Z,1.88
2022-09-04T11:55:57.557Z,1.70
2022-09-04T11:58:49.685Z,1.52
2022-09-04T12:01:29.748Z,1.60
2022-09-04T12:04:23.345Z,1.83
2022-09-04T12:07:14.159Z,1.70
2022-09-04T12:09:41.109Z,2.20
2022-09-04T12:12:11.603Z,1.80
2022-09-04T12:14:41.572Z,1.52
2022-09-04T12:17:44.206Z,1.38
2022-09-04T12:20:38.758Z,1.70
2022-09-04T12:23:11.638Z,1.92
2022-09-04T12:26:01.471Z,3.05
2022-09-04T12:28:38.040Z,1.80
2022-09-04T12:31:42.493Z,1.70
2022-09-04T12:34:46.819Z,1.60
2022-09-04T12:37:22.673Z,1.63
2022-09-04T12:40:01.768Z,1.70
2022-09-04T12:42:52.982Z,1.45
2022-09-04T12:45:31.287Z,2.00
2022-09-04T12:48:33.718Z,1.73
2022-09-04T12:51:13.620Z,2.20
2022-09-04T12:53:48.197Z,2.25
2022-09-04T12:56:56.331Z,2.03
2022-09-04T12:59:27.936Z,2.08
2022-09-04T13:02:01.891Z,1.90
2022-09-04T13:04:35.220Z,1.60
2022-09-04T13:07:15.907Z,1.65
2022-09-04T13:12:42.250Z,1.60
2022-09-04T13:15:14.491Z,1.60
2022-09-04T13:17:44.124Z,1.67
2022-09-04T13:20:10.985Z,2.00
2022-09-04T13:22:48.428Z,1.67
2022-09-04T13:25:42.830Z,2.03
2022-09-04T13:28:23.938Z,2.00
2022-09-04T13:31:05.923Z,1.90
2022-09-04T13:33:57.847Z,1.98
2022-09-04T13:36:54.374Z,1.42
2022-09-04T13:39:54.801Z,2.33
2022-09-04T13:42:44.747Z,2.27
2022-09-04T13:45:19.459Z,1.55
2022-09-04T13:47:53.720Z,2.50
2022-09-04T13:50:33.018Z,1.88
2022-09-04T13:53:16.052Z,2.28
2022-09-04T13:55:49.967Z,3.10
2022-09-04T13:58:20.310Z,1.90
2022-09-04T14:00:59.338Z,1.70
2022-09-04T14:03:36.917Z,1.52
2022-09-04T14:06:09.032Z,2.00
2022-09-04T14:08:43.276Z,2.00
2022-09-04T14:11:30.485Z,2.00
2022-09-04T14:14:11.913Z,1.63
2022-09-04T14:16:44.336Z,2.10
2022-09-04T14:19:40.140Z,1.60
2022-09-04T14:22:56.647Z,2.22
2022-09-04T14:25:51.237Z,1.90
2022-09-04T14:28:38.506Z,2.10
2022-09-04T14:31:33.976Z,1.65
2022-09-04T14:34:16.581Z,1.50
2022-09-04T14:37:00.505Z,1.80
2022-09-04T14:39:48.220Z,1.30
2022-09-04T14:42:24.862Z,1.73
2022-09-04T14:45:10.162Z,1.77
2022-09-04T14:48:03.655Z,1.90
2022-09-04T14:50:43.430Z,2.40
2022-09-04T14:53:10.728Z,1.80
2022-09-04T14:56:01.993Z,2.00
2022-09-04T15:03:49.807Z,1.88
2022-09-04T15:06:25.855Z,2.05
2022-09-04T15:08:55.589Z,1.65
2022-09-04T15:11:34.860Z,2.10
2022-09-04T15:14:28.547Z,1.70
2022-09-04T15:17:06.259Z,2.03
2022-09-04T15:19:53.446Z,2.10
2022-09-04T15:22:40.749Z,1.92
2022-09-04T15:25:56.838Z,2.22
2022-09-04T15:28:32.039Z,2.50
2022-09-04T15:31:21.024Z,2.17
2022-09-04T15:33:49.235Z,2.33
2022-09-04T15:36:20.962Z,2.40
2022-09-04T15:38:53.918Z,2.10
2022-09-04T15:42:09.308Z,1.85
2022-09-04T15:44:45.132Z,2.67
2022-09-04T15:47:55.859Z,1.90
2022-09-04T15:50:29.384Z,2.22
2022-09-04T15:53:25.113Z,2.10
2022-09-04T15:56:09.513Z,1.60
2022-09-04T15:58:54.247Z,1.70
2022-09-04T16:01:30.113Z,1.83
2022-09-04T16:04:07.547Z,1.83
2022-09-04T16:06:45.334Z,1.73
2022-09-04T16:09:29.199Z,2.75
2022-09-04T16:12:10.433Z,3.20
2022-09-04T16:14:56.504Z,2.10
2022-09-04T16:17:33.918Z,1.85
2022-09-04T16:20:35.928Z,1.85
2022-09-04T16:23:09.947Z,2.53
2022-09-04T16:25:50.446Z,1.90
2022-09-04T16:28:33.847Z,2.53
2022-09-04T16:31:12.437Z,2.53
2022-09-04T16:33:50.971Z,2.50
2022-09-04T16:36:22.969Z,1.90
2022-09-04T16:38:57.382Z,1.77
2022-09-04T16:41:38.877Z,1.98
2022-09-04T16:44:14.344Z,2.65
2022-09-04T16:47:15.052Z,1.80
2022-09-04T16:50:02.644Z,2.60
2022-09-04T16:52:45.018Z,1.40
2022-09-04T16:55:31.304Z,2.10
2022-09-04T16:58:35.121Z,1.90
2022-09-04T17:01:14.265Z,2.17
2022-09-04T17:03:52.320Z,1.45
2022-09-04T17:07:15.885Z,2.55
2022-09-04T17:09:50.363Z,2.85
2022-09-04T17:12:35.774Z,2.97
2022-09-04T17:15:11.539Z,1.70
2022-09-04T17:17:42.623Z,2.63
2022-09-04T17:20:23.843Z,1.48
2022-09-04T17:29:01.921Z,3.30
2022-09-04T17:29:18.361Z,2.97
2022-09-04T17:30:04.749Z,2.28
2022-09-04T17:36:19.189Z,1.50
2022-09-04T17:40:43.703Z,2.72
2022-09-04T17:41:31.303Z,2.60
2022-09-04T17:42:15.690Z,2.45
2022-09-04T17:44:56.777Z,2.22
2022-09-04T17:47:29.073Z,2.50
2022-09-04T17:49:57.179Z,5.68
2022-09-04T17:52:28.263Z,4.45
2022-09-04T17:55:09.200Z,3.25
2022-09-04T17:58:13.811Z,3.80
2022-09-04T18:01:14.220Z,3.00
2022-09-04T18:04:19.980Z,3.78
2022-09-04T18:06:51.755Z,3.20
2022-09-04T18:09:51.657Z,3.38
2022-09-04T18:12:52.197Z,3.58
2022-09-04T18:15:33.651Z,4.25
2022-09-04T18:18:13.518Z,4.97
2022-09-04T18:20:46.936Z,5.38
2022-09-04T18:23:51.712Z,5.82
2022-09-04T18:26:34.042Z,4.90
2022-09-04T18:30:28.809Z,5.35
2022-09-04T18:37:22.288Z,5.18
2022-09-04T18:37:25.654Z,5.70
2022-09-04T18:38:34.073Z,5.47
2022-09-04T18:43:12.246Z,5.30
2022-09-04T18:50:20.770Z,4.28
2022-09-04T18:50:30.653Z,5.88
2022-09-04T18:50:44.949Z,4.35
2022-09-04T18:53:00.770Z,5.85
2022-09-04T18:55:48.206Z,5.93
2022-09-04T18:58:15.062Z,5.20
2022-09-04T19:01:03.975Z,5.85
2022-09-04T19:03:48.346Z,5.80
2022-09-04T19:06:36.469Z,7.15
2022-09-04T19:09:19.775Z,5.72
2022-09-04T19:11:54.312Z,7.32
2022-09-04T19:14:29.149Z,6.43
2022-09-04T19:17:03.301Z,10.43
2022-09-04T19:19:37.224Z,6.80
2022-09-04T19:22:18.284Z,4.90
2022-09-04T19:24:51.855Z,5.57
2022-09-04T19:27:45.738Z,5.45
2022-09-04T19:30:20.114Z,4.50
2022-09-04T19:32:57.898Z,5.30
2022-09-04T19:35:42.487Z,5.28
2022-09-04T19:41:19.843Z,4.25
2022-09-04T19:46:01.039Z,6.47
2022-09-04T19:46:18.862Z,4.80
2022-09-04T19:47:27.152Z,7.00
2022-09-04T19:53:22.330Z,7.18
2022-09-04T19:53:35.888Z,7.82
2022-09-04T19:55:50.203Z,8.88
2022-09-04T19:58:44.235Z,5.63
2022-09-04T20:01:18.117Z,5.75
2022-09-04T20:03:58.978Z,7.88
2022-09-04T20:06:36.512Z,9.75
2022-09-04T20:09:30.828Z,8.68
2022-09-04T20:12:41.294Z,7.63
2022-09-04T20:15:13.118Z,9.45
2022-09-04T20:20:54.785Z,8.95
2022-09-04T20:23:35.205Z,10.35
2022-09-04T20:26:52.727Z,12.07
2022-09-04T20:29:29.542Z,10.35
2022-09-04T20:32:01.260Z,10.30
2022-09-04T20:34:31.362Z,9.95
2022-09-04T20:37:28.580Z,10.88
2022-09-04T20:40:30.276Z,11.82
2022-09-04T20:43:03.220Z,9.88
2022-09-04T20:48:24.380Z,12.68
2022-09-04T20:52:50.863Z,11.80
2022-09-04T20:52:56.254Z,19.30
2022-09-04T20:54:40.038Z,11.18
2022-09-04T21:03:15.216Z,10.35
2022-09-04T21:03:39.053Z,12.85
2022-09-04T21:06:25.286Z,9.18
2022-09-04T21:09:09.546Z,6.95
2022-09-04T21:11:47.298Z,8.38
2022-09-04T21:14:39.706Z,9.45
2022-09-04T21:17:59.481Z,8.90
2022-09-04T21:20:59.852Z,9.15
2022-09-04T21:23:36.569Z,7.97
2022-09-04T21:26:03.569Z,38.72
2022-09-04T21:32:39.589Z,11.13
2022-09-04T21:35:27.280Z,10.95
2022-09-04T21:38:14.821Z,8.30
2022-09-04T21:41:09.366Z,6.90
2022-09-04T21:43:58.294Z,7.18
2022-09-04T21:46:49.747Z,6.15
2022-09-04T21:49:28.782Z,6.50
2022-09-04T21:52:13.990Z,5.82
2022-09-04T21:58:52.406Z,6.60
2022-09-04T22:02:30.531Z,6.95
2022-09-04T22:02:36.515Z,6.90
2022-09-04T22:03:54.805Z,8.40
2022-09-04T22:07:45.793Z,6.78
2022-09-04T22:13:30.445Z,6.70
2022-09-04T22:13:40.087Z,6.88
2022-09-04T22:15:45.957Z,6.57
2022-09-04T22:18:40.224Z,6.75
2022-09-04T22:21:26.840Z,6.22
2022-09-04T22:23:56.461Z,6.18
2022-09-04T22:27:01.521Z,7.85
2022-09-04T22:29:58.179Z,6.18
2022-09-04T22:32:51.165Z,6.45
2022-09-04T22:35:51.734Z,6.38
2022-09-04T22:38:50.568Z,7.05
2022-09-04T22:41:26.464Z,8.60
2022-09-04T22:44:15.562Z,6.88
2022-09-04T22:47:26.248Z,5.68
2022-09-04T22:50:39.108Z,5.60
2022-09-04T22:53:35.254Z,4.03
2022-09-04T22:56:23.695Z,4.78
2022-09-04T22:59:25.667Z,4.50
2022-09-04T23:02:13.449Z,2.97
2022-09-04T23:04:48.158Z,3.72
2022-09-04T23:12:26.801Z,4.40
2022-09-04T23:13:59.329Z,3.60
2022-09-04T23:14:07.698Z,4.32
2022-09-04T23:17:17.482Z,4.05
2022-09-04T23:26:32.225Z,3.92
2022-09-04T23:26:43.056Z,2.63
2022-09-04T23:26:57.852Z,3.30
2022-09-04T23:29:41.233Z,4.45
2022-09-04T23:32:16.281Z,4.45
2022-09-04T23:35:14.727Z,3.42
2022-09-04T23:38:16.748Z,3.00
2022-09-04T23:40:53.445Z,3.20
2022-09-04T23:44:04.307Z,2.00
2022-09-04T23:46:52.473Z,2.53
2022-09-04T23:49:37.980Z,2.45
2022-09-04T23:52:48.687Z,3.03
2022-09-04T23:55:56.124Z,2.85
2022-09-04T23:59:16.750Z,2.67
